sensor_id;sensor_type;location;lat;lon;timestamp;P1;durP1;ratioP1;P2;durP2;ratioP2
65035;SDS011;51603;49.300;8.880;2022-09-09T00:02:22;5.87;;;1.70;;
65035;SDS011;51603;49.300;8.880;2022-09-09T00:07:47;2.03;;;1.50;;
65035;SDS011;51603;49.300;8.880;2022-09-09T00:10:16;7.20;;;2.73;;
65035;SDS011;51603;49.300;8.880;2022-09-09T00:12:47;2.63;;;2.30;;
65035;SDS011;51603;49.300;8.880;2022-09-09T00:15:40;3.40;;;1.87;;
65035;SDS011;51603;49.300;8.880;2022-09-09T00:21:06;6.10;;;2.63;;
65035;SDS011;51603;49.300;8.880;2022-09-09T00:23:39;3.50;;;2.50;;
65035;SDS011;51603;49.300;8.880;2022-09-09T00:26:11;3.80;;;2.03;;
65035;SDS011;51603;49.300;8.880;2022-09-09T00:31:45;3.90;;;1.97;;
65035;SDS011;51603;49.300;8.880;2022-09-09T00:34:12;4.80;;;2.57;;
65035;SDS011;51603;49.300;8.880;2022-09-09T00:36:41;3.10;;;1.80;;
65035;SDS011;51603;49.300;8.880;2022-09-09T00:39:19;3.23;;;1.70;;
65035;SDS011;51603;49.300;8.880;2022-09-09T00:41:59;2.47;;;1.80;;
65035;SDS011;51603;49.300;8.880;2022-09-09T00:44:34;3.63;;;1.97;;
65035;SDS011;51603;49.300;8.880;2022-09-09T00:47:04;3.73;;;2.20;;
65035;SDS011;51603;49.300;8.880;2022-09-09T00:52:40;5.93;;;3.13;;
65035;SDS011;51603;49.300;8.880;2022-09-09T00:55:14;3.40;;;2.57;;
65035;SDS011;51603;49.300;8.880;2022-09-09T00:57:46;3.40;;;2.40;;
65035;SDS011;51603;49.300;8.880;2022-09-09T01:03:42;3.47;;;1.93;;
65035;SDS011;51603;49.300;8.880;2022-09-09T01:06:30;5.83;;;2.60;;
65035;SDS011;51603;49.300;8.880;2022-09-09T01:11:55;9.80;;;2.17;;
65035;SDS011;51603;49.300;8.880;2022-09-09T01:14:42;3.20;;;2.27;;
65035;SDS011;51603;49.300;8.880;2022-09-09T01:17:23;2.40;;;2.07;;
65035;SDS011;51603;49.300;8.880;2022-09-09T01:20:04;3.53;;;2.57;;
65035;SDS011;51603;49.300;8.880;2022-09-09T01:25:30;2.13;;;1.60;;
65035;SDS011;51603;49.300;8.880;2022-09-09T01:28:30;3.83;;;2.60;;
65035;SDS011;51603;49.300;8.880;2022-09-09T01:30:56;3.30;;;1.70;;
65035;SDS011;51603;49.300;8.880;2022-09-09T01:33:23;3.90;;;2.30;;
65035;SDS011;51603;49.300;8.880;2022-09-09T01:35:54;7.70;;;2.30;;
65035;SDS011;51603;49.300;8.880;2022-09-09T01:38:25;10.60;;;2.80;;
65035;SDS011;51603;49.300;8.880;2022-09-09T01:40:52;3.20;;;1.90;;
65035;SDS011;51603;49.300;8.880;2022-09-09T01:43:20;3.80;;;2.27;;
65035;SDS011;51603;49.300;8.880;2022-09-09T01:45:46;6.23;;;2.83;;
65035;SDS011;51603;49.300;8.880;2022-09-09T01:48:16;5.63;;;3.10;;
65035;SDS011;51603;49.300;8.880;2022-09-09T01:50:42;6.23;;;3.07;;
65035;SDS011;51603;49.300;8.880;2022-09-09T01:53:08;6.53;;;3.10;;
65035;SDS011;51603;49.300;8.880;2022-09-09T01:55:37;4.33;;;2.90;;
65035;SDS011;51603;49.300;8.880;2022-09-09T01:58:11;8.53;;;2.97;;
65035;SDS011;51603;49.300;8.880;2022-09-09T02:03:51;3.80;;;2.50;;
65035;SDS011;51603;49.300;8.880;2022-09-09T02:08:56;3.53;;;2.53;;
65035;SDS011;51603;49.300;8.880;2022-09-09T02:11:25;4.03;;;2.70;;
65035;SDS011;51603;49.300;8.880;2022-09-09T02:13:53;5.37;;;2.17;;
65035;SDS011;51603;49.300;8.880;2022-09-09T02:16:37;2.67;;;2.47;;
65035;SDS011;51603;49.300;8.880;2022-09-09T02:19:11;4.23;;;2.03;;
65035;SDS011;51603;49.300;8.880;2022-09-09T02:21:42;6.80;;;2.83;;
65035;SDS011;51603;49.300;8.880;2022-09-09T02:24:10;8.00;;;2.70;;
65035;SDS011;51603;49.300;8.880;2022-09-09T02:26:39;5.53;;;2.37;;
65035;SDS011;51603;49.300;8.880;2022-09-09T02:29:14;4.90;;;2.33;;
65035;SDS011;51603;49.300;8.880;2022-09-09T02:31:44;3.20;;;2.20;;
65035;SDS011;51603;49.300;8.880;2022-09-09T02:34:11;3.13;;;2.60;;
65035;SDS011;51603;49.300;8.880;2022-09-09T02:36:38;3.37;;;2.80;;
65035;SDS011;51603;49.300;8.880;2022-09-09T02:39:07;4.03;;;3.63;;
65035;SDS011;51603;49.300;8.880;2022-09-09T02:41:35;6.97;;;2.90;;
65035;SDS011;51603;49.300;8.880;2022-09-09T02:44:10;3.87;;;3.00;;
65035;SDS011;51603;49.300;8.880;2022-09-09T02:52:08;4.63;;;2.97;;
65035;SDS011;51603;49.300;8.880;2022-09-09T02:54:40;5.13;;;3.03;;
65035;SDS011;51603;49.300;8.880;2022-09-09T02:57:17;5.77;;;2.80;;
65035;SDS011;51603;49.300;8.880;2022-09-09T02:59:47;5.33;;;3.13;;
65035;SDS011;51603;49.300;8.880;2022-09-09T03:02:13;3.97;;;2.60;;
65035;SDS011;51603;49.300;8.880;2022-09-09T03:04:39;3.53;;;2.10;;
65035;SDS011;51603;49.300;8.880;2022-09-09T03:07:06;3.40;;;1.80;;
65035;SDS011;51603;49.300;8.880;2022-09-09T03:09:32;4.20;;;2.67;;
65035;SDS011;51603;49.300;8.880;2022-09-09T03:11:57;4.53;;;2.60;;
65035;SDS011;51603;49.300;8.880;2022-09-09T03:14:23;3.17;;;2.60;;
65035;SDS011;51603;49.300;8.880;2022-09-09T03:16:53;4.90;;;2.70;;
65035;SDS011;51603;49.300;8.880;2022-09-09T03:19:19;4.57;;;2.50;;
65035;SDS011;51603;49.300;8.880;2022-09-09T03:21:46;4.00;;;2.17;;
65035;SDS011;51603;49.300;8.880;2022-09-09T03:24:12;3.30;;;3.00;;
65035;SDS011;51603;49.300;8.880;2022-09-09T03:26:39;5.03;;;2.30;;
65035;SDS011;51603;49.300;8.880;2022-09-09T03:29:05;3.60;;;2.97;;
65035;SDS011;51603;49.300;8.880;2022-09-09T03:31:32;3.63;;;2.67;;
65035;SDS011;51603;49.300;8.880;2022-09-09T03:33:58;4.53;;;2.60;;
65035;SDS011;51603;49.300;8.880;2022-09-09T03:36:24;3.93;;;2.90;;
65035;SDS011;51603;49.300;8.880;2022-09-09T03:38:51;3.33;;;2.43;;
65035;SDS011;51603;49.300;8.880;2022-09-09T03:41:19;5.03;;;2.60;;
65035;SDS011;51603;49.300;8.880;2022-09-09T03:43:44;4.63;;;2.20;;
65035;SDS011;51603;49.300;8.880;2022-09-09T03:46:10;2.70;;;2.50;;
65035;SDS011;51603;49.300;8.880;2022-09-09T03:48:35;4.23;;;2.80;;
65035;SDS011;51603;49.300;8.880;2022-09-09T03:51:01;5.40;;;3.03;;
65035;SDS011;51603;49.300;8.880;2022-09-09T03:53:28;4.23;;;3.23;;
65035;SDS011;51603;49.300;8.880;2022-09-09T03:55:54;2.90;;;2.60;;
65035;SDS011;51603;49.300;8.880;2022-09-09T03:58:24;3.63;;;3.10;;
65035;SDS011;51603;49.300;8.880;2022-09-09T04:00:55;4.20;;;3.40;;
65035;SDS011;51603;49.300;8.880;2022-09-09T04:03:23;3.63;;;3.03;;
65035;SDS011;51603;49.300;8.880;2022-09-09T04:05:50;4.30;;;2.60;;
65035;SDS011;51603;49.300;8.880;2022-09-09T04:08:16;4.70;;;3.03;;
65035;SDS011;51603;49.300;8.880;2022-09-09T04:10:44;6.47;;;2.37;;
65035;SDS011;51603;49.300;8.880;2022-09-09T04:13:11;5.10;;;2.30;;
65035;SDS011;51603;49.300;8.880;2022-09-09T04:15:40;3.17;;;2.00;;
65035;SDS011;51603;49.300;8.880;2022-09-09T04:18:06;2.83;;;2.50;;
65035;SDS011;51603;49.300;8.880;2022-09-09T04:20:31;2.20;;;1.90;;
65035;SDS011;51603;49.300;8.880;2022-09-09T04:22:57;4.97;;;1.90;;
65035;SDS011;51603;49.300;8.880;2022-09-09T04:25:23;4.93;;;2.40;;
65035;SDS011;51603;49.300;8.880;2022-09-09T04:27:58;3.60;;;2.03;;
65035;SDS011;51603;49.300;8.880;2022-09-09T04:30:24;3.20;;;2.30;;
65035;SDS011;51603;49.300;8.880;2022-09-09T04:32:50;4.10;;;2.30;;
65035;SDS011;51603;49.300;8.880;2022-09-09T04:35:15;4.00;;;2.00;;
65035;SDS011;51603;49.300;8.880;2022-09-09T04:37:41;3.33;;;1.80;;
65035;SDS011;51603;49.300;8.880;2022-09-09T04:40:07;2.97;;;2.03;;
65035;SDS011;51603;49.300;8.880;2022-09-09T04:42:35;2.53;;;1.80;;
65035;SDS011;51603;49.300;8.880;2022-09-09T04:45:01;3.43;;;1.97;;
65035;SDS011;51603;49.300;8.880;2022-09-09T04:47:28;6.07;;;2.63;;
65035;SDS011;51603;49.300;8.880;2022-09-09T04:49:53;2.87;;;1.90;;
65035;SDS011;51603;49.300;8.880;2022-09-09T04:52:19;2.87;;;2.30;;
65035;SDS011;51603;49.300;8.880;2022-09-09T04:54:45;3.73;;;2.37;;
65035;SDS011;51603;49.300;8.880;2022-09-09T04:57:11;4.13;;;1.70;;
65035;SDS011;51603;49.300;8.880;2022-09-09T04:59:37;3.10;;;2.00;;
65035;SDS011;51603;49.300;8.880;2022-09-09T05:02:04;3.23;;;1.90;;
65035;SDS011;51603;49.300;8.880;2022-09-09T05:04:30;3.33;;;2.00;;
65035;SDS011;51603;49.300;8.880;2022-09-09T05:06:55;3.20;;;1.70;;
65035;SDS011;51603;49.300;8.880;2022-09-09T05:09:21;4.53;;;1.90;;
65035;SDS011;51603;49.300;8.880;2022-09-09T05:11:46;11.10;;;2.30;;
65035;SDS011;51603;49.300;8.880;2022-09-09T05:14:13;2.30;;;2.00;;
65035;SDS011;51603;49.300;8.880;2022-09-09T05:16:39;3.70;;;2.70;;
65035;SDS011;51603;49.300;8.880;2022-09-09T05:19:05;4.23;;;2.07;;
65035;SDS011;51603;49.300;8.880;2022-09-09T05:21:32;5.43;;;2.07;;
65035;SDS011;51603;49.300;8.880;2022-09-09T05:23:58;2.97;;;1.77;;
65035;SDS011;51603;49.300;8.880;2022-09-09T05:26:25;3.30;;;1.60;;
65035;SDS011;51603;49.300;8.880;2022-09-09T05:28:50;2.33;;;1.33;;
65035;SDS011;51603;49.300;8.880;2022-09-09T05:31:17;2.50;;;2.30;;
65035;SDS011;51603;49.300;8.880;2022-09-09T05:33:44;3.77;;;2.47;;
65035;SDS011;51603;49.300;8.880;2022-09-09T05:36:15;5.00;;;2.70;;
65035;SDS011;51603;49.300;8.880;2022-09-09T05:38:42;3.63;;;2.83;;
65035;SDS011;51603;49.300;8.880;2022-09-09T05:41:08;7.80;;;3.00;;
65035;SDS011;51603;49.300;8.880;2022-09-09T05:43:36;6.77;;;3.10;;
65035;SDS011;51603;49.300;8.880;2022-09-09T05:46:05;5.30;;;3.20;;
65035;SDS011;51603;49.300;8.880;2022-09-09T05:48:33;3.47;;;2.60;;
65035;SDS011;51603;49.300;8.880;2022-09-09T05:51:01;6.07;;;4.00;;
65035;SDS011;51603;49.300;8.880;2022-09-09T05:53:27;5.87;;;4.00;;
65035;SDS011;51603;49.300;8.880;2022-09-09T05:58:28;3.73;;;2.90;;
65035;SDS011;51603;49.300;8.880;2022-09-09T06:01:03;3.57;;;3.27;;
65035;SDS011;51603;49.300;8.880;2022-09-09T06:03:34;6.53;;;3.00;;
65035;SDS011;51603;49.300;8.880;2022-09-09T06:06:01;6.67;;;3.70;;
65035;SDS011;51603;49.300;8.880;2022-09-09T06:08:32;3.73;;;2.90;;
65035;SDS011;51603;49.300;8.880;2022-09-09T06:11:02;3.40;;;3.10;;
65035;SDS011;51603;49.300;8.880;2022-09-09T06:13:29;8.47;;;4.17;;
65035;SDS011;51603;49.300;8.880;2022-09-09T06:15:55;9.80;;;3.97;;
65035;SDS011;51603;49.300;8.880;2022-09-09T06:18:21;5.63;;;3.07;;
65035;SDS011;51603;49.300;8.880;2022-09-09T06:20:53;6.33;;;3.30;;
65035;SDS011;51603;49.300;8.880;2022-09-09T06:23:23;6.23;;;2.93;;
65035;SDS011;51603;49.300;8.880;2022-09-09T06:25:49;6.20;;;3.33;;
65035;SDS011;51603;49.300;8.880;2022-09-09T06:28:15;4.63;;;2.60;;
65035;SDS011;51603;49.300;8.880;2022-09-09T06:30:42;3.70;;;3.30;;
65035;SDS011;51603;49.300;8.880;2022-09-09T06:33:08;5.40;;;2.90;;
65035;SDS011;51603;49.300;8.880;2022-09-09T06:35:34;3.73;;;3.10;;
65035;SDS011;51603;49.300;8.880;2022-09-09T06:38:00;7.30;;;4.07;;
65035;SDS011;51603;49.300;8.880;2022-09-09T06:40:25;6.80;;;4.10;;
65035;SDS011;51603;49.300;8.880;2022-09-09T06:42:51;5.30;;;3.50;;
65035;SDS011;51603;49.300;8.880;2022-09-09T06:45:16;6.27;;;3.90;;
65035;SDS011;51603;49.300;8.880;2022-09-09T06:47:43;5.30;;;3.20;;
65035;SDS011;51603;49.300;8.880;2022-09-09T06:50:09;4.17;;;3.87;;
65035;SDS011;51603;49.300;8.880;2022-09-09T06:52:36;4.17;;;3.23;;
65035;SDS011;51603;49.300;8.880;2022-09-09T06:55:02;4.50;;;3.50;;
65035;SDS011;51603;49.300;8.880;2022-09-09T06:57:28;4.53;;;3.20;;
65035;SDS011;51603;49.300;8.880;2022-09-09T06:59:53;5.90;;;2.53;;
65035;SDS011;51603;49.300;8.880;2022-09-09T07:02:19;3.50;;;2.30;;
65035;SDS011;51603;49.300;8.880;2022-09-09T07:04:44;3.10;;;2.03;;
65035;SDS011;51603;49.300;8.880;2022-09-09T07:07:10;2.40;;;1.40;;
65035;SDS011;51603;49.300;8.880;2022-09-09T07:09:38;5.70;;;1.83;;
65035;SDS011;51603;49.300;8.880;2022-09-09T07:12:04;2.83;;;1.37;;
65035;SDS011;51603;49.300;8.880;2022-09-09T07:14:31;5.33;;;1.13;;
65035;SDS011;51603;49.300;8.880;2022-09-09T07:16:57;4.17;;;1.40;;
65035;SDS011;51603;49.300;8.880;2022-09-09T07:19:23;4.10;;;1.57;;
65035;SDS011;51603;49.300;8.880;2022-09-09T07:21:48;4.40;;;1.50;;
65035;SDS011;51603;49.300;8.880;2022-09-09T07:24:14;3.10;;;1.40;;
65035;SDS011;51603;49.300;8.880;2022-09-09T07:26:40;3.40;;;1.30;;
65035;SDS011;51603;49.300;8.880;2022-09-09T07:29:06;3.90;;;1.33;;
65035;SDS011;51603;49.300;8.880;2022-09-09T07:31:33;5.43;;;1.17;;
65035;SDS011;51603;49.300;8.880;2022-09-09T07:34:02;3.27;;;1.43;;
65035;SDS011;51603;49.300;8.880;2022-09-09T07:36:32;5.43;;;1.73;;
65035;SDS011;51603;49.300;8.880;2022-09-09T07:39:00;3.17;;;1.23;;
65035;SDS011;51603;49.300;8.880;2022-09-09T07:41:29;4.17;;;1.30;;
65035;SDS011;51603;49.300;8.880;2022-09-09T07:44:08;4.47;;;1.87;;
65035;SDS011;51603;49.300;8.880;2022-09-09T07:46:36;6.17;;;1.87;;
65035;SDS011;51603;49.300;8.880;2022-09-09T07:49:02;5.70;;;1.83;;
65035;SDS011;51603;49.300;8.880;2022-09-09T07:51:29;2.23;;;1.20;;
65035;SDS011;51603;49.300;8.880;2022-09-09T07:54:01;6.03;;;1.57;;
65035;SDS011;51603;49.300;8.880;2022-09-09T07:56:28;4.50;;;1.30;;
65035;SDS011;51603;49.300;8.880;2022-09-09T07:58:55;4.43;;;1.47;;
65035;SDS011;51603;49.300;8.880;2022-09-09T08:01:32;5.13;;;1.27;;
65035;SDS011;51603;49.300;8.880;2022-09-09T08:04:03;5.07;;;1.40;;
65035;SDS011;51603;49.300;8.880;2022-09-09T08:06:35;5.53;;;1.20;;
65035;SDS011;51603;49.300;8.880;2022-09-09T08:09:02;2.90;;;1.20;;
65035;SDS011;51603;49.300;8.880;2022-09-09T08:11:29;9.10;;;1.40;;
65035;SDS011;51603;49.300;8.880;2022-09-09T08:13:55;3.80;;;1.63;;
65035;SDS011;51603;49.300;8.880;2022-09-09T08:16:25;7.10;;;1.60;;
65035;SDS011;51603;49.300;8.880;2022-09-09T08:18:52;4.73;;;1.57;;
65035;SDS011;51603;49.300;8.880;2022-09-09T08:21:21;5.47;;;1.50;;
65035;SDS011;51603;49.300;8.880;2022-09-09T08:23:50;4.77;;;1.63;;
65035;SDS011;51603;49.300;8.880;2022-09-09T08:26:18;5.10;;;1.50;;
65035;SDS011;51603;49.300;8.880;2022-09-09T08:28:47;5.30;;;1.87;;
65035;SDS011;51603;49.300;8.880;2022-09-09T08:31:18;4.53;;;1.13;;
65035;SDS011;51603;49.300;8.880;2022-09-09T08:33:43;4.33;;;1.50;;
65035;SDS011;51603;49.300;8.880;2022-09-09T08:36:19;2.30;;;0.80;;
65035;SDS011;51603;49.300;8.880;2022-09-09T08:38:50;4.63;;;1.63;;
65035;SDS011;51603;49.300;8.880;2022-09-09T08:50:22;3.63;;;1.60;;
65035;SDS011;51603;49.300;8.880;2022-09-09T08:55:50;5.40;;;1.50;;
65035;SDS011;51603;49.300;8.880;2022-09-09T08:58:27;4.83;;;1.63;;
65035;SDS011;51603;49.300;8.880;2022-09-09T09:09:27;5.20;;;1.67;;
65035;SDS011;51603;49.300;8.880;2022-09-09T09:12:16;3.97;;;1.57;;
65035;SDS011;51603;49.300;8.880;2022-09-09T09:14:45;2.87;;;1.50;;
65035;SDS011;51603;49.300;8.880;2022-09-09T09:17:13;8.03;;;1.30;;
65035;SDS011;51603;49.300;8.880;2022-09-09T09:19:40;3.00;;;1.30;;
65035;SDS011;51603;49.300;8.880;2022-09-09T09:22:30;2.60;;;1.30;;
65035;SDS011;51603;49.300;8.880;2022-09-09T09:25:10;3.90;;;1.50;;
65035;SDS011;51603;49.300;8.880;2022-09-09T09:27:49;3.10;;;1.60;;
65035;SDS011;51603;49.300;8.880;2022-09-09T09:30:39;2.30;;;1.20;;
65035;SDS011;51603;49.300;8.880;2022-09-09T09:33:14;6.00;;;1.80;;
65035;SDS011;51603;49.300;8.880;2022-09-09T09:35:48;4.37;;;1.33;;
65035;SDS011;51603;49.300;8.880;2022-09-09T09:38:19;4.90;;;1.60;;
65035;SDS011;51603;49.300;8.880;2022-09-09T09:40:54;2.30;;;1.30;;
65035;SDS011;51603;49.300;8.880;2022-09-09T09:46:04;6.37;;;1.60;;
65035;SDS011;51603;49.300;8.880;2022-09-09T09:48:30;3.53;;;1.43;;
65035;SDS011;51603;49.300;8.880;2022-09-09T09:51:01;3.10;;;1.00;;
65035;SDS011;51603;49.300;8.880;2022-09-09T09:53:33;3.23;;;1.40;;
65035;SDS011;51603;49.300;8.880;2022-09-09T09:56:01;4.80;;;1.33;;
65035;SDS011;51603;49.300;8.880;2022-09-09T09:58:33;7.17;;;1.47;;
65035;SDS011;51603;49.300;8.880;2022-09-09T10:01:25;4.30;;;1.23;;
65035;SDS011;51603;49.300;8.880;2022-09-09T10:06:30;4.53;;;1.80;;
65035;SDS011;51603;49.300;8.880;2022-09-09T10:09:00;3.27;;;1.30;;
65035;SDS011;51603;49.300;8.880;2022-09-09T10:17:06;3.43;;;1.43;;
65035;SDS011;51603;49.300;8.880;2022-09-09T10:22:43;4.13;;;1.83;;
65035;SDS011;51603;49.300;8.880;2022-09-09T10:31:30;3.90;;;1.20;;
65035;SDS011;51603;49.300;8.880;2022-09-09T10:34:13;4.87;;;1.50;;
65035;SDS011;51603;49.300;8.880;2022-09-09T10:36:46;5.80;;;1.43;;
65035;SDS011;51603;49.300;8.880;2022-09-09T10:42:09;2.30;;;1.43;;
65035;SDS011;51603;49.300;8.880;2022-09-09T10:50:29;4.50;;;1.30;;
65035;SDS011;51603;49.300;8.880;2022-09-09T10:53:19;6.20;;;1.43;;
65035;SDS011;51603;49.300;8.880;2022-09-09T10:55:53;5.10;;;1.80;;
65035;SDS011;51603;49.300;8.880;2022-09-09T10:58:26;2.07;;;1.13;;
65035;SDS011;51603;49.300;8.880;2022-09-09T11:01:00;3.67;;;1.47;;
65035;SDS011;51603;49.300;8.880;2022-09-09T11:03:34;3.10;;;1.13;;
65035;SDS011;51603;49.300;8.880;2022-09-09T11:06:05;4.20;;;1.20;;
65035;SDS011;51603;49.300;8.880;2022-09-09T11:08:38;3.30;;;1.17;;
65035;SDS011;51603;49.300;8.880;2022-09-09T11:11:06;4.87;;;1.90;;
65035;SDS011;51603;49.300;8.880;2022-09-09T11:19:15;6.13;;;1.60;;
65035;SDS011;51603;49.300;8.880;2022-09-09T11:21:49;3.40;;;1.30;;
65035;SDS011;51603;49.300;8.880;2022-09-09T11:24:21;2.40;;;1.13;;
65035;SDS011;51603;49.300;8.880;2022-09-09T11:26:53;4.67;;;1.57;;
65035;SDS011;51603;49.300;8.880;2022-09-09T11:35:23;2.40;;;1.00;;
65035;SDS011;51603;49.300;8.880;2022-09-09T11:40:28;3.00;;;1.20;;
65035;SDS011;51603;49.300;8.880;2022-09-09T11:45:39;4.00;;;1.30;;
65035;SDS011;51603;49.300;8.880;2022-09-09T11:48:21;5.07;;;1.30;;
65035;SDS011;51603;49.300;8.880;2022-09-09T11:51:10;5.33;;;1.17;;
65035;SDS011;51603;49.300;8.880;2022-09-09T11:53:51;2.83;;;1.10;;
65035;SDS011;51603;49.300;8.880;2022-09-09T12:01:34;2.67;;;0.90;;
65035;SDS011;51603;49.300;8.880;2022-09-09T12:06:48;3.40;;;0.97;;
65035;SDS011;51603;49.300;8.880;2022-09-09T12:17:40;4.23;;;1.10;;
65035;SDS011;51603;49.300;8.880;2022-09-09T12:20:15;2.10;;;0.70;;
65035;SDS011;51603;49.300;8.880;2022-09-09T12:25:46;2.77;;;0.80;;
65035;SDS011;51603;49.300;8.880;2022-09-09T12:31:26;2.87;;;0.77;;
65035;SDS011;51603;49.300;8.880;2022-09-09T12:33:53;3.57;;;1.20;;
65035;SDS011;51603;49.300;8.880;2022-09-09T12:36:20;2.53;;;1.13;;
65035;SDS011;51603;49.300;8.880;2022-09-09T12:38:49;3.83;;;1.30;;
65035;SDS011;51603;49.300;8.880;2022-09-09T12:41:20;4.03;;;1.50;;
65035;SDS011;51603;49.300;8.880;2022-09-09T12:43:50;4.57;;;1.20;;
65035;SDS011;51603;49.300;8.880;2022-09-09T12:49:01;2.53;;;1.20;;
65035;SDS011;51603;49.300;8.880;2022-09-09T12:51:28;2.67;;;1.07;;
65035;SDS011;51603;49.300;8.880;2022-09-09T12:53:56;13.27;;;1.40;;
65035;SDS011;51603;49.300;8.880;2022-09-09T12:56:27;4.07;;;1.03;;
65035;SDS011;51603;49.300;8.880;2022-09-09T12:58:56;7.73;;;1.27;;
65035;SDS011;51603;49.300;8.880;2022-09-09T13:01:30;8.40;;;1.87;;
65035;SDS011;51603;49.300;8.880;2022-09-09T13:03:58;5.87;;;1.53;;
65035;SDS011;51603;49.300;8.880;2022-09-09T13:06:25;5.03;;;1.10;;
65035;SDS011;51603;49.300;8.880;2022-09-09T13:08:52;2.97;;;1.00;;
65035;SDS011;51603;49.300;8.880;2022-09-09T13:11:22;4.10;;;1.73;;
65035;SDS011;51603;49.300;8.880;2022-09-09T13:14:01;4.50;;;1.30;;
65035;SDS011;51603;49.300;8.880;2022-09-09T13:16:31;3.90;;;1.10;;
65035;SDS011;51603;49.300;8.880;2022-09-09T13:19:00;2.33;;;0.90;;
65035;SDS011;51603;49.300;8.880;2022-09-09T13:21:35;3.80;;;1.03;;
65035;SDS011;51603;49.300;8.880;2022-09-09T13:24:03;5.43;;;1.10;;
65035;SDS011;51603;49.300;8.880;2022-09-09T13:26:59;5.10;;;0.90;;
65035;SDS011;51603;49.300;8.880;2022-09-09T13:29:29;1.60;;;0.63;;
65035;SDS011;51603;49.300;8.880;2022-09-09T13:32:05;1.43;;;0.50;;
65035;SDS011;51603;49.300;8.880;2022-09-09T13:34:40;1.80;;;0.70;;
65035;SDS011;51603;49.300;8.880;2022-09-09T13:37:39;3.00;;;1.00;;
65035;SDS011;51603;49.300;8.880;2022-09-09T13:40:06;2.17;;;0.80;;
65035;SDS011;51603;49.300;8.880;2022-09-09T13:42:43;2.90;;;1.00;;
65035;SDS011;51603;49.300;8.880;2022-09-09T13:45:19;3.40;;;1.07;;
65035;SDS011;51603;49.300;8.880;2022-09-09T13:47:47;2.00;;;1.17;;
65035;SDS011;51603;49.300;8.880;2022-09-09T13:50:20;5.80;;;1.20;;
65035;SDS011;51603;49.300;8.880;2022-09-09T13:52:48;1.80;;;0.83;;
65035;SDS011;51603;49.300;8.880;2022-09-09T13:55:16;3.07;;;0.80;;
65035;SDS011;51603;49.300;8.880;2022-09-09T13:57:52;2.13;;;0.80;;
65035;SDS011;51603;49.300;8.880;2022-09-09T14:00:29;1.53;;;0.70;;
65035;SDS011;51603;49.300;8.880;2022-09-09T14:02:56;2.97;;;0.67;;
65035;SDS011;51603;49.300;8.880;2022-09-09T14:05:22;3.43;;;0.50;;
65035;SDS011;51603;49.300;8.880;2022-09-09T14:07:48;2.20;;;0.93;;
65035;SDS011;51603;49.300;8.880;2022-09-09T14:10:14;1.93;;;0.80;;
65035;SDS011;51603;49.300;8.880;2022-09-09T14:12:40;1.73;;;0.70;;
65035;SDS011;51603;49.300;8.880;2022-09-09T14:15:06;2.30;;;0.50;;
65035;SDS011;51603;49.300;8.880;2022-09-09T14:17:34;1.77;;;0.50;;
65035;SDS011;51603;49.300;8.880;2022-09-09T14:20:01;3.17;;;0.80;;
65035;SDS011;51603;49.300;8.880;2022-09-09T14:22:28;1.40;;;0.60;;
65035;SDS011;51603;49.300;8.880;2022-09-09T14:24:53;1.67;;;0.70;;
65035;SDS011;51603;49.300;8.880;2022-09-09T14:27:19;1.30;;;0.80;;
65035;SDS011;51603;49.300;8.880;2022-09-09T14:29:44;2.90;;;0.70;;
65035;SDS011;51603;49.300;8.880;2022-09-09T14:32:10;4.17;;;0.93;;
65035;SDS011;51603;49.300;8.880;2022-09-09T14:34:37;1.07;;;0.60;;
65035;SDS011;51603;49.300;8.880;2022-09-09T14:37:03;2.17;;;0.70;;
65035;SDS011;51603;49.300;8.880;2022-09-09T14:39:28;1.53;;;0.70;;
65035;SDS011;51603;49.300;8.880;2022-09-09T14:41:54;6.33;;;1.07;;
65035;SDS011;51603;49.300;8.880;2022-09-09T14:44:20;2.50;;;0.97;;
65035;SDS011;51603;49.300;8.880;2022-09-09T14:46:46;2.10;;;0.80;;
65035;SDS011;51603;49.300;8.880;2022-09-09T14:49:11;2.60;;;0.70;;
65035;SDS011;51603;49.300;8.880;2022-09-09T14:51:37;1.30;;;0.60;;
65035;SDS011;51603;49.300;8.880;2022-09-09T14:54:04;2.63;;;0.90;;
65035;SDS011;51603;49.300;8.880;2022-09-09T14:56:30;3.40;;;1.00;;
65035;SDS011;51603;49.300;8.880;2022-09-09T14:58:59;2.07;;;0.80;;
65035;SDS011;51603;49.300;8.880;2022-09-09T15:01:28;2.53;;;0.70;;
65035;SDS011;51603;49.300;8.880;2022-09-09T15:04:02;1.47;;;0.80;;
65035;SDS011;51603;49.300;8.880;2022-09-09T15:06:30;2.43;;;1.00;;
65035;SDS011;51603;49.300;8.880;2022-09-09T15:08:58;2.77;;;0.70;;
65035;SDS011;51603;49.300;8.880;2022-09-09T15:11:25;2.30;;;0.80;;
65035;SDS011;51603;49.300;8.880;2022-09-09T15:13:52;2.27;;;0.70;;
65035;SDS011;51603;49.300;8.880;2022-09-09T15:16:19;2.60;;;1.10;;
65035;SDS011;51603;49.300;8.880;2022-09-09T15:18:46;2.80;;;0.77;;
65035;SDS011;51603;49.300;8.880;2022-09-09T15:21:17;2.13;;;0.73;;
65035;SDS011;51603;49.300;8.880;2022-09-09T15:23:45;3.67;;;1.03;;
65035;SDS011;51603;49.300;8.880;2022-09-09T15:26:12;3.73;;;1.00;;
65035;SDS011;51603;49.300;8.880;2022-09-09T15:28:42;1.40;;;1.00;;
65035;SDS011;51603;49.300;8.880;2022-09-09T15:31:28;3.37;;;0.87;;
65035;SDS011;51603;49.300;8.880;2022-09-09T15:33:59;3.33;;;1.00;;
65035;SDS011;51603;49.300;8.880;2022-09-09T15:36:27;2.87;;;0.70;;
65035;SDS011;51603;49.300;8.880;2022-09-09T15:38:54;1.20;;;0.60;;
65035;SDS011;51603;49.300;8.880;2022-09-09T15:41:20;1.40;;;0.53;;
65035;SDS011;51603;49.300;8.880;2022-09-09T15:43:48;2.53;;;0.60;;
65035;SDS011;51603;49.300;8.880;2022-09-09T15:46:31;4.23;;;0.67;;
65035;SDS011;51603;49.300;8.880;2022-09-09T15:49:06;1.40;;;0.40;;
65035;SDS011;51603;49.300;8.880;2022-09-09T15:51:46;3.63;;;0.53;;
65035;SDS011;51603;49.300;8.880;2022-09-09T15:54:28;2.00;;;0.80;;
65035;SDS011;51603;49.300;8.880;2022-09-09T15:56:57;2.97;;;0.80;;
65035;SDS011;51603;49.300;8.880;2022-09-09T15:59:25;1.97;;;0.90;;
65035;SDS011;51603;49.300;8.880;2022-09-09T16:01:55;2.00;;;0.50;;
65035;SDS011;51603;49.300;8.880;2022-09-09T16:04:22;3.07;;;0.73;;
65035;SDS011;51603;49.300;8.880;2022-09-09T16:06:52;1.33;;;0.60;;
65035;SDS011;51603;49.300;8.880;2022-09-09T16:09:19;1.43;;;0.70;;
65035;SDS011;51603;49.300;8.880;2022-09-09T16:11:45;4.97;;;0.70;;
65035;SDS011;51603;49.300;8.880;2022-09-09T16:14:12;4.77;;;0.67;;
65035;SDS011;51603;49.300;8.880;2022-09-09T16:16:38;0.90;;;0.50;;
65035;SDS011;51603;49.300;8.880;2022-09-09T16:19:05;1.23;;;0.73;;
65035;SDS011;51603;49.300;8.880;2022-09-09T16:21:33;2.37;;;0.90;;
65035;SDS011;51603;49.300;8.880;2022-09-09T16:24:02;2.10;;;0.43;;
65035;SDS011;51603;49.300;8.880;2022-09-09T16:26:29;2.70;;;0.50;;
65035;SDS011;51603;49.300;8.880;2022-09-09T16:28:56;2.00;;;1.73;;
65035;SDS011;51603;49.300;8.880;2022-09-09T16:31:24;3.33;;;1.57;;
65035;SDS011;51603;49.300;8.880;2022-09-09T16:33:50;1.40;;;1.20;;
65035;SDS011;51603;49.300;8.880;2022-09-09T16:36:17;5.13;;;2.00;;
65035;SDS011;51603;49.300;8.880;2022-09-09T16:38:51;1.93;;;0.70;;
65035;SDS011;51603;49.300;8.880;2022-09-09T16:41:22;2.27;;;0.90;;
65035;SDS011;51603;49.300;8.880;2022-09-09T16:43:51;3.90;;;2.20;;
65035;SDS011;51603;49.300;8.880;2022-09-09T16:46:18;2.63;;;1.10;;
65035;SDS011;51603;49.300;8.880;2022-09-09T16:48:45;3.40;;;0.93;;
65035;SDS011;51603;49.300;8.880;2022-09-09T16:51:13;3.40;;;1.20;;
65035;SDS011;51603;49.300;8.880;2022-09-09T16:53:53;3.47;;;1.20;;
65035;SDS011;51603;49.300;8.880;2022-09-09T16:56:20;3.33;;;0.80;;
65035;SDS011;51603;49.300;8.880;2022-09-09T16:58:50;6.53;;;0.80;;
65035;SDS011;51603;49.300;8.880;2022-09-09T17:01:17;2.83;;;0.70;;
65035;SDS011;51603;49.300;8.880;2022-09-09T17:03:43;1.37;;;0.60;;
65035;SDS011;51603;49.300;8.880;2022-09-09T17:06:10;1.60;;;0.90;;
65035;SDS011;51603;49.300;8.880;2022-09-09T17:08:36;4.87;;;1.03;;
65035;SDS011;51603;49.300;8.880;2022-09-09T17:11:03;1.23;;;0.60;;